sensor_id;sensor_type;location;lat;lon;timestamp;pressure;altitude;pressure_sealevel;temperature;humidity
27685;BME280;46113;50.130;8.526;2023-04-28T00:00:35;98979.72;;;6.88;61.42
27685;BME280;46113;50.130;8.526;2023-04-28T00:03:02;98978.19;;;7.21;60.26
27685;BME280;46113;50.130;8.526;2023-04-28T00:05:29;98974.28;;;7.30;60.75
27685;BME280;46113;50.130;8.526;2023-04-28T00:07:56;98981.84;;;7.36;60.12
27685;BME280;46113;50.130;8.526;2023-04-28T00:10:25;98975.59;;;7.39;58.18
27685;BME280;46113;50.130;8.526;2023-04-28T00:12:52;98972.66;;;7.45;59.51
27685;BME280;46113;50.130;8.526;2023-04-28T00:15:19;98966.44;;;7.46;58.41
27685;BME280;46113;50.130;8.526;2023-04-28T00:17:48;98963.19;;;7.23;59.11
27685;BME280;46113;50.130;8.526;2023-04-28T00:20:15;98965.69;;;6.88;57.13
27685;BME280;46113;50.130;8.526;2023-04-28T00:23:19;98963.28;;;7.02;59.01
27685;BME280;46113;50.130;8.526;2023-04-28T00:25:53;98958.50;;;6.91;57.94
27685;BME280;46113;50.130;8.526;2023-04-28T00:28:20;98953.63;;;6.84;53.72
27685;BME280;46113;50.130;8.526;2023-04-28T00:30:59;98939.81;;;7.35;56.92
27685;BME280;46113;50.130;8.526;2023-04-28T00:33:27;98943.78;;;7.26;54.75
27685;BME280;46113;50.130;8.526;2023-04-28T00:36:00;98946.34;;;7.45;58.06
27685;BME280;46113;50.130;8.526;2023-04-28T00:38:27;98930.16;;;7.53;57.13
27685;BME280;46113;50.130;8.526;2023-04-28T00:40:54;98932.09;;;7.31;57.95
27685;BME280;46113;50.130;8.526;2023-04-28T00:43:22;98926.91;;;7.30;58.50
27685;BME280;46113;50.130;8.526;2023-04-28T00:45:50;98929.09;;;7.39;59.09
27685;BME280;46113;50.130;8.526;2023-04-28T00:48:20;98913.13;;;7.42;57.01
27685;BME280;46113;50.130;8.526;2023-04-28T00:50:48;98913.03;;;7.09;56.94
27685;BME280;46113;50.130;8.526;2023-04-28T00:53:15;98900.97;;;7.40;56.64
27685;BME280;46113;50.130;8.526;2023-04-28T00:55:42;98904.38;;;7.07;57.06
27685;BME280;46113;50.130;8.526;2023-04-28T00:58:09;98901.34;;;7.32;58.13
27685;BME280;46113;50.130;8.526;2023-04-28T01:00:36;98897.25;;;7.26;58.51
27685;BME280;46113;50.130;8.526;2023-04-28T01:03:03;98898.91;;;6.92;58.33
27685;BME280;46113;50.130;8.526;2023-04-28T01:05:33;98896.41;;;7.43;58.52
27685;BME280;46113;50.130;8.526;2023-04-28T01:08:03;98896.94;;;7.50;56.28
27685;BME280;46113;50.130;8.526;2023-04-28T01:10:31;98886.88;;;7.41;57.73
27685;BME280;46113;50.130;8.526;2023-04-28T01:13:07;98891.44;;;7.37;58.14
27685;BME280;46113;50.130;8.526;2023-04-28T01:15:34;98892.47;;;7.52;57.22
27685;BME280;46113;50.130;8.526;2023-04-28T01:18:01;98891.13;;;7.61;56.63
27685;BME280;46113;50.130;8.526;2023-04-28T01:20:28;98876.44;;;7.22;57.23
27685;BME280;46113;50.130;8.526;2023-04-28T01:22:56;98883.56;;;7.37;57.13
27685;BME280;46113;50.130;8.526;2023-04-28T01:25:23;98887.47;;;7.11;57.40
27685;BME280;46113;50.130;8.526;2023-04-28T01:27:51;98883.84;;;7.13;57.43
27685;BME280;46113;50.130;8.526;2023-04-28T01:30:18;98878.13;;;7.23;56.79
27685;BME280;46113;50.130;8.526;2023-04-28T01:32:45;98876.97;;;7.28;57.34
27685;BME280;46113;50.130;8.526;2023-04-28T01:35:12;98874.28;;;7.30;58.49
27685;BME280;46113;50.130;8.526;2023-04-28T01:37:39;98873.19;;;7.16;58.83
27685;BME280;46113;50.130;8.526;2023-04-28T01:40:07;98870.31;;;7.21;58.02
27685;BME280;46113;50.130;8.526;2023-04-28T01:42:35;98865.38;;;7.33;56.06
27685;BME280;46113;50.130;8.526;2023-04-28T01:45:03;98863.81;;;7.46;56.99
27685;BME280;46113;50.130;8.526;2023-04-28T01:47:31;98870.59;;;6.97;57.89
27685;BME280;46113;50.130;8.526;2023-04-28T01:49:58;98858.25;;;7.35;55.40
27685;BME280;46113;50.130;8.526;2023-04-28T01:52:24;98863.63;;;6.96;57.16
27685;BME280;46113;50.130;8.526;2023-04-28T01:54:53;98856.81;;;6.92;57.72
27685;BME280;46113;50.130;8.526;2023-04-28T01:57:20;98854.69;;;7.18;57.95
27685;BME280;46113;50.130;8.526;2023-04-28T01:59:48;98850.75;;;7.09;58.45
27685;BME280;46113;50.130;8.526;2023-04-28T02:02:15;98844.22;;;6.99;59.70
27685;BME280;46113;50.130;8.526;2023-04-28T02:04:42;98842.78;;;7.28;58.81
27685;BME280;46113;50.130;8.526;2023-04-28T02:07:09;98846.94;;;7.15;57.59
27685;BME280;46113;50.130;8.526;2023-04-28T02:09:36;98843.75;;;7.43;54.43
27685;BME280;46113;50.130;8.526;2023-04-28T02:12:03;98846.59;;;7.56;54.51
27685;BME280;46113;50.130;8.526;2023-04-28T02:14:30;98845.19;;;7.67;54.78
27685;BME280;46113;50.130;8.526;2023-04-28T02:17:00;98844.38;;;7.49;55.70
27685;BME280;46113;50.130;8.526;2023-04-28T02:19:28;98832.75;;;7.70;55.89
27685;BME280;46113;50.130;8.526;2023-04-28T02:21:55;98823.75;;;7.75;57.57
27685;BME280;46113;50.130;8.526;2023-04-28T02:24:22;98823.56;;;7.44;51.95
27685;BME280;46113;50.130;8.526;2023-04-28T02:26:49;98825.59;;;7.73;52.90
27685;BME280;46113;50.130;8.526;2023-04-28T02:29:17;98821.28;;;7.71;54.85
27685;BME280;46113;50.130;8.526;2023-04-28T02:31:44;98819.19;;;7.61;55.51
27685;BME280;46113;50.130;8.526;2023-04-28T02:34:11;98812.84;;;7.65;56.27
27685;BME280;46113;50.130;8.526;2023-04-28T02:36:38;98815.84;;;7.23;57.29
27685;BME280;46113;50.130;8.526;2023-04-28T02:39:06;98815.53;;;7.29;57.85
27685;BME280;46113;50.130;8.526;2023-04-28T02:41:32;98815.97;;;7.02;57.41
27685;BME280;46113;50.130;8.526;2023-04-28T02:44:00;98818.44;;;7.58;56.72
27685;BME280;46113;50.130;8.526;2023-04-28T02:46:27;98820.06;;;7.43;56.92
27685;BME280;46113;50.130;8.526;2023-04-28T02:48:54;98819.00;;;7.48;58.11
27685;BME280;46113;50.130;8.526;2023-04-28T02:51:22;98821.19;;;7.22;58.22
27685;BME280;46113;50.130;8.526;2023-04-28T02:53:48;98816.75;;;7.57;56.26
27685;BME280;46113;50.130;8.526;2023-04-28T02:56:15;98820.09;;;7.26;55.98
27685;BME280;46113;50.130;8.526;2023-04-28T02:58:42;98811.81;;;7.67;56.20
27685;BME280;46113;50.130;8.526;2023-04-28T03:01:09;98820.94;;;7.78;56.63
27685;BME280;46113;50.130;8.526;2023-04-28T03:03:36;98826.38;;;7.23;56.31
27685;BME280;46113;50.130;8.526;2023-04-28T03:06:04;98815.34;;;7.50;56.05
27685;BME280;46113;50.130;8.526;2023-04-28T03:08:31;98821.59;;;7.31;55.77
27685;BME280;46113;50.130;8.526;2023-04-28T03:10:58;98816.00;;;7.20;55.88
27685;BME280;46113;50.130;8.526;2023-04-28T03:13:26;98811.97;;;7.30;59.50
27685;BME280;46113;50.130;8.526;2023-04-28T03:15:55;98806.47;;;7.35;60.67
27685;BME280;46113;50.130;8.526;2023-04-28T03:18:23;98793.53;;;7.48;60.09
27685;BME280;46113;50.130;8.526;2023-04-28T03:20:50;98790.81;;;6.61;62.81
27685;BME280;46113;50.130;8.526;2023-04-28T03:23:16;98798.03;;;6.93;63.49
27685;BME280;46113;50.130;8.526;2023-04-28T03:25:43;98800.81;;;6.72;65.87
27685;BME280;46113;50.130;8.526;2023-04-28T03:28:10;98802.31;;;6.59;67.83
27685;BME280;46113;50.130;8.526;2023-04-28T03:30:38;98792.66;;;6.22;69.70
27685;BME280;46113;50.130;8.526;2023-04-28T03:33:05;98795.09;;;6.82;68.00
27685;BME280;46113;50.130;8.526;2023-04-28T03:35:33;98798.94;;;6.37;70.35
27685;BME280;46113;50.130;8.526;2023-04-28T03:38:00;98797.16;;;6.75;69.40
27685;BME280;46113;50.130;8.526;2023-04-28T03:40:27;98796.31;;;6.74;70.13
27685;BME280;46113;50.130;8.526;2023-04-28T03:43:09;98785.69;;;6.21;71.64
27685;BME280;46113;50.130;8.526;2023-04-28T03:45:42;98785.38;;;6.47;68.44
27685;BME280;46113;50.130;8.526;2023-04-28T03:48:09;98777.13;;;6.18;68.61
27685;BME280;46113;50.130;8.526;2023-04-28T03:50:36;98777.81;;;6.21;67.01
27685;BME280;46113;50.130;8.526;2023-04-28T03:53:03;98772.72;;;6.73;68.36
27685;BME280;46113;50.130;8.526;2023-04-28T03:55:31;98769.66;;;6.08;70.72
27685;BME280;46113;50.130;8.526;2023-04-28T03:57:58;98771.59;;;6.42;69.16
27685;BME280;46113;50.130;8.526;2023-04-28T04:00:25;98777.91;;;6.37;70.18
27685;BME280;46113;50.130;8.526;2023-04-28T04:02:53;98769.47;;;6.50;69.19
27685;BME280;46113;50.130;8.526;2023-04-28T04:05:20;98759.19;;;6.26;69.80
27685;BME280;46113;50.130;8.526;2023-04-28T04:07:48;98739.41;;;5.99;69.03
27685;BME280;46113;50.130;8.526;2023-04-28T04:10:15;98737.28;;;6.45;67.68
27685;BME280;46113;50.130;8.526;2023-04-28T04:12:43;98748.81;;;6.60;67.76
27685;BME280;46113;50.130;8.526;2023-04-28T04:15:11;98751.53;;;6.58;68.64
27685;BME280;46113;50.130;8.526;2023-04-28T04:17:39;98749.28;;;6.50;68.25
27685;BME280;46113;50.130;8.526;2023-04-28T04:20:06;98744.88;;;6.86;67.45
27685;BME280;46113;50.130;8.526;2023-04-28T04:22:33;98747.22;;;6.75;68.10
27685;BME280;46113;50.130;8.526;2023-04-28T04:25:00;98742.25;;;6.51;68.43
27685;BME280;46113;50.130;8.526;2023-04-28T04:27:28;98746.22;;;6.77;67.43
27685;BME280;46113;50.130;8.526;2023-04-28T04:29:55;98746.13;;;6.44;68.18
27685;BME280;46113;50.130;8.526;2023-04-28T04:32:21;98736.94;;;6.16;70.36
27685;BME280;46113;50.130;8.526;2023-04-28T04:34:49;98739.13;;;6.43;69.50
27685;BME280;46113;50.130;8.526;2023-04-28T04:37:16;98741.88;;;6.76;68.60
27685;BME280;46113;50.130;8.526;2023-04-28T04:39:50;98729.03;;;6.88;68.24
27685;BME280;46113;50.130;8.526;2023-04-28T04:42:17;98733.34;;;6.54;67.51
27685;BME280;46113;50.130;8.526;2023-04-28T04:45:10;98729.78;;;6.55;68.74
27685;BME280;46113;50.130;8.526;2023-04-28T04:47:40;98729.66;;;6.58;69.83
27685;BME280;46113;50.130;8.526;2023-04-28T04:50:10;98729.81;;;6.72;69.58
27685;BME280;46113;50.130;8.526;2023-04-28T04:52:37;98732.75;;;6.84;69.08
27685;BME280;46113;50.130;8.526;2023-04-28T04:55:05;98729.91;;;7.06;68.26
27685;BME280;46113;50.130;8.526;2023-04-28T04:57:32;98735.22;;;7.22;67.94
27685;BME280;46113;50.130;8.526;2023-04-28T05:00:05;98732.34;;;6.91;68.62
27685;BME280;46113;50.130;8.526;2023-04-28T05:02:32;98732.47;;;7.08;67.88
27685;BME280;46113;50.130;8.526;2023-04-28T05:05:05;98730.50;;;6.94;66.77
27685;BME280;46113;50.130;8.526;2023-04-28T05:08:07;98726.19;;;7.10;68.46
27685;BME280;46113;50.130;8.526;2023-04-28T05:10:34;98733.81;;;7.33;67.51
27685;BME280;46113;50.130;8.526;2023-04-28T05:13:03;98736.38;;;7.16;68.59
27685;BME280;46113;50.130;8.526;2023-04-28T05:15:30;98747.66;;;7.18;69.09
27685;BME280;46113;50.130;8.526;2023-04-28T05:18:21;98740.16;;;7.28;68.83
27685;BME280;46113;50.130;8.526;2023-04-28T05:20:48;98744.69;;;6.91;69.68
27685;BME280;46113;50.130;8.526;2023-04-28T05:23:19;98741.78;;;7.31;67.67
27685;BME280;46113;50.130;8.526;2023-04-28T05:25:46;98749.41;;;7.36;68.18
27685;BME280;46113;50.130;8.526;2023-04-28T05:28:14;98749.44;;;7.00;68.17
27685;BME280;46113;50.130;8.526;2023-04-28T05:30:42;98754.25;;;6.57;70.74
27685;BME280;46113;50.130;8.526;2023-04-28T05:33:11;98761.81;;;6.63;70.23
27685;BME280;46113;50.130;8.526;2023-04-28T05:35:47;98768.97;;;7.14;69.43
27685;BME280;46113;50.130;8.526;2023-04-28T05:38:14;98786.59;;;7.29;69.11
27685;BME280;46113;50.130;8.526;2023-04-28T05:40:44;98788.50;;;7.43;68.24
27685;BME280;46113;50.130;8.526;2023-04-28T05:43:12;98789.50;;;7.41;68.91
27685;BME280;46113;50.130;8.526;2023-04-28T05:45:39;98775.22;;;6.94;70.60
27685;BME280;46113;50.130;8.526;2023-04-28T05:48:06;98761.81;;;6.81;69.98
27685;BME280;46113;50.130;8.526;2023-04-28T05:50:41;98736.41;;;6.27;71.30
27685;BME280;46113;50.130;8.526;2023-04-28T05:53:09;98746.81;;;6.83;70.64
27685;BME280;46113;50.130;8.526;2023-04-28T05:55:36;98745.56;;;6.37;73.77
27685;BME280;46113;50.130;8.526;2023-04-28T05:58:08;98752.78;;;6.69;72.73
27685;BME280;46113;50.130;8.526;2023-04-28T06:00:36;98747.19;;;6.39;75.68
27685;BME280;46113;50.130;8.526;2023-04-28T06:03:06;98752.94;;;6.65;73.98
27685;BME280;46113;50.130;8.526;2023-04-28T06:05:37;98763.97;;;6.90;72.96
27685;BME280;46113;50.130;8.526;2023-04-28T06:08:05;98773.81;;;6.86;72.23
27685;BME280;46113;50.130;8.526;2023-04-28T06:10:33;98787.66;;;6.90;71.51
27685;BME280;46113;50.130;8.526;2023-04-28T06:13:01;98791.47;;;6.84;70.68
27685;BME280;46113;50.130;8.526;2023-04-28T06:15:34;98795.06;;;6.64;72.28
27685;BME280;46113;50.130;8.526;2023-04-28T06:18:02;98792.34;;;6.48;74.09
27685;BME280;46113;50.130;8.526;2023-04-28T06:20:32;98778.03;;;6.54;73.32
27685;BME280;46113;50.130;8.526;2023-04-28T06:22:59;98782.66;;;5.92;76.32
27685;BME280;46113;50.130;8.526;2023-04-28T06:25:30;98784.09;;;6.56;74.43
27685;BME280;46113;50.130;8.526;2023-04-28T06:27:58;98778.59;;;6.78;73.98
27685;BME280;46113;50.130;8.526;2023-04-28T06:30:26;98776.66;;;6.46;73.43
27685;BME280;46113;50.130;8.526;2023-04-28T06:32:53;98772.03;;;6.87;72.06
27685;BME280;46113;50.130;8.526;2023-04-28T06:35:22;98777.63;;;7.16;71.56
27685;BME280;46113;50.130;8.526;2023-04-28T06:37:53;98760.75;;;7.20;71.25
27685;BME280;46113;50.130;8.526;2023-04-28T06:40:20;98769.44;;;7.22;71.64
27685;BME280;46113;50.130;8.526;2023-04-28T06:42:52;98777.16;;;7.25;71.62
27685;BME280;46113;50.130;8.526;2023-04-28T06:45:25;98764.59;;;6.60;74.20
27685;BME280;46113;50.130;8.526;2023-04-28T06:47:55;98759.94;;;6.65;73.28
27685;BME280;46113;50.130;8.526;2023-04-28T06:50:23;98759.03;;;6.84;73.19
27685;BME280;46113;50.130;8.526;2023-04-28T06:52:50;98761.91;;;6.97;72.96
27685;BME280;46113;50.130;8.526;2023-04-28T06:55:17;98771.59;;;7.14;72.38
27685;BME280;46113;50.130;8.526;2023-04-28T06:57:44;98767.19;;;6.79;73.19
27685;BME280;46113;50.130;8.526;2023-04-28T07:00:12;98768.69;;;6.65;74.69
27685;BME280;46113;50.130;8.526;2023-04-28T07:02:39;98776.19;;;6.56;75.39
27685;BME280;46113;50.130;8.526;2023-04-28T07:05:07;98769.41;;;6.32;76.63
27685;BME280;46113;50.130;8.526;2023-04-28T07:07:35;98769.19;;;6.74;74.61
27685;BME280;46113;50.130;8.526;2023-04-28T07:10:05;98767.03;;;6.45;76.18
27685;BME280;46113;50.130;8.526;2023-04-28T07:12:40;98777.75;;;6.77;74.51
27685;BME280;46113;50.130;8.526;2023-04-28T07:15:07;98781.38;;;6.92;73.37
27685;BME280;46113;50.130;8.526;2023-04-28T07:17:36;98776.66;;;6.27;75.11
27685;BME280;46113;50.130;8.526;2023-04-28T07:20:04;98774.25;;;6.22;75.79
27685;BME280;46113;50.130;8.526;2023-04-28T07:22:31;98774.97;;;6.81;74.52
27685;BME280;46113;50.130;8.526;2023-04-28T07:25:02;98777.31;;;7.22;72.80
27685;BME280;46113;50.130;8.526;2023-04-28T07:27:30;98767.09;;;7.34;71.83
27685;BME280;46113;50.130;8.526;2023-04-28T07:29:58;98767.41;;;7.27;71.63
27685;BME280;46113;50.130;8.526;2023-04-28T07:32:27;98769.56;;;7.01;72.85
27685;BME280;46113;50.130;8.526;2023-04-28T07:34:54;98768.78;;;6.99;73.98
27685;BME280;46113;50.130;8.526;2023-04-28T07:37:21;98765.72;;;6.91;74.51
27685;BME280;46113;50.130;8.526;2023-04-28T07:39:48;98750.13;;;7.39;73.11
27685;BME280;46113;50.130;8.526;2023-04-28T07:42:18;98747.19;;;6.92;72.27
27685;BME280;46113;50.130;8.526;2023-04-28T07:44:45;98742.22;;;6.33;75.60
27685;BME280;46113;50.130;8.526;2023-04-28T07:47:15;98745.28;;;6.96;72.61
27685;BME280;46113;50.130;8.526;2023-04-28T07:49:42;98742.34;;;7.20;72.57
27685;BME280;46113;50.130;8.526;2023-04-28T07:52:09;98731.19;;;6.97;72.97
27685;BME280;46113;50.130;8.526;2023-04-28T07:54:36;98712.31;;;7.24;73.53
27685;BME280;46113;50.130;8.526;2023-04-28T07:57:11;98716.97;;;7.69;71.94
27685;BME280;46113;50.130;8.526;2023-04-28T07:59:38;98722.38;;;7.50;72.55
27685;BME280;46113;50.130;8.526;2023-04-28T08:02:05;98723.78;;;7.73;71.54
27685;BME280;46113;50.130;8.526;2023-04-28T08:04:33;98727.66;;;7.50;70.89
27685;BME280;46113;50.130;8.526;2023-04-28T08:07:07;98715.31;;;7.50;72.45
27685;BME280;46113;50.130;8.526;2023-04-28T08:09:34;98689.75;;;7.36;71.99
27685;BME280;46113;50.130;8.526;2023-04-28T08:12:04;98701.97;;;7.37;73.40
27685;BME280;46113;50.130;8.526;2023-04-28T08:14:31;98700.84;;;7.25;72.74
27685;BME280;46113;50.130;8.526;2023-04-28T08:16:58;98690.50;;;7.22;72.39
27685;BME280;46113;50.130;8.526;2023-04-28T08:19:25;98699.22;;;6.71;74.82
27685;BME280;46113;50.130;8.526;2023-04-28T08:21:55;98691.06;;;6.76;76.15
27685;BME280;46113;50.130;8.526;2023-04-28T08:24:23;98701.03;;;7.72;72.01
27685;BME280;46113;50.130;8.526;2023-04-28T08:26:52;98705.81;;;7.48;70.97
27685;BME280;46113;50.130;8.526;2023-04-28T08:29:23;98708.13;;;7.70;71.07
27685;BME280;46113;50.130;8.526;2023-04-28T08:31:51;98701.41;;;7.48;72.49
27685;BME280;46113;50.130;8.526;2023-04-28T08:34:18;98709.81;;;7.71;72.23
27685;BME280;46113;50.130;8.526;2023-04-28T08:36:46;98713.88;;;8.25;71.39
27685;BME280;46113;50.130;8.526;2023-04-28T08:39:16;98724.47;;;7.93;71.08
27685;BME280;46113;50.130;8.526;2023-04-28T08:41:45;98727.94;;;7.77;71.72
27685;BME280;46113;50.130;8.526;2023-04-28T08:44:12;98726.41;;;8.21;71.42
27685;BME280;46113;50.130;8.526;2023-04-28T08:46:54;98726.63;;;8.33;69.72
27685;BME280;46113;50.130;8.526;2023-04-28T08:49:30;98736.31;;;8.48;69.71
27685;BME280;46113;50.130;8.526;2023-04-28T08:52:00;98740.84;;;7.98;70.61
27685;BME280;46113;50.130;8.526;2023-04-28T08:54:30;98736.31;;;8.48;69.96
27685;BME280;46113;50.130;8.526;2023-04-28T08:56:59;98748.22;;;8.07;70.62
27685;BME280;46113;50.130;8.526;2023-04-28T08:59:38;98745.69;;;8.06;73.18
27685;BME280;46113;50.130;8.526;2023-04-28T09:02:08;98745.16;;;7.67;74.21
27685;BME280;46113;50.130;8.526;2023-04-28T09:04:40;98744.72;;;8.39;72.13
27685;BME280;46113;50.130;8.526;2023-04-28T09:07:10;98736.84;;;8.23;72.09
27685;BME280;46113;50.130;8.526;2023-04-28T09:09:39;98731.72;;;8.36;71.80
27685;BME280;46113;50.130;8.526;2023-04-28T09:12:07;98730.97;;;8.50;71.87
27685;BME280;46113;50.130;8.526;2023-04-28T09:14:39;98731.66;;;8.21;72.58
27685;BME280;46113;50.130;8.526;2023-04-28T09:17:13;98729.19;;;8.34;72.47
27685;BME280;46113;50.130;8.526;2023-04-28T09:19:40;98722.97;;;8.97;70.52
27685;BME280;46113;50.130;8.526;2023-04-28T09:22:14;98736.38;;;9.08;69.93
27685;BME280;46113;50.130;8.526;2023-04-28T09:24:52;98739.09;;;8.92;70.39
27685;BME280;46113;50.130;8.526;2023-04-28T09:27:27;98737.38;;;8.91;70.13
27685;BME280;46113;50.130;8.526;2023-04-28T09:29:55;98735.69;;;8.90;70.51
27685;BME280;46113;50.130;8.526;2023-04-28T09:32:25;98733.44;;;8.98;69.71
27685;BME280;46113;50.130;8.526;2023-04-28T09:34:54;98733.72;;;8.94;69.67
27685;BME280;46113;50.130;8.526;2023-04-28T09:37:28;98738.06;;;8.64;71.16
27685;BME280;46113;50.130;8.526;2023-04-28T09:42:42;98736.97;;;8.52;72.91
27685;BME280;46113;50.130;8.526;2023-04-28T09:45:16;98730.72;;;9.00;71.62
27685;BME280;46113;50.130;8.526;2023-04-28T09:47:46;98731.75;;;8.97;71.22
27685;BME280;46113;50.130;8.526;2023-04-28T09:50:16;98734.41;;;9.12;70.22
27685;BME280;46113;50.130;8.526;2023-04-28T09:52:56;98731.38;;;9.03;71.19
27685;BME280;46113;50.130;8.526;2023-04-28T09:55:26;98730.19;;;9.09;71.45
27685;BME280;46113;50.130;8.526;2023-04-28T09:57:54;98733.09;;;9.34;71.96
27685;BME280;46113;50.130;8.526;2023-04-28T10:00:22;98728.19;;;8.68;75.18
27685;BME280;46113;50.130;8.526;2023-04-28T10:02:49;98723.59;;;9.31;72.78
27685;BME280;46113;50.130;8.526;2023-04-28T10:05:19;98721.94;;;9.72;72.00
27685;BME280;46113;50.130;8.526;2023-04-28T10:07:48;98730.97;;;9.97;69.71
27685;BME280;46113;50.130;8.526;2023-04-28T10:10:19;98723.38;;;9.78;70.95
27685;BME280;46113;50.130;8.526;2023-04-28T10:12:48;98729.03;;;10.01;69.19
27685;BME280;46113;50.130;8.526;2023-04-28T10:15:20;98724.06;;;10.37;68.18
27685;BME280;46113;50.130;8.526;2023-04-28T10:17:53;98722.88;;;10.00;69.07
27685;BME280;46113;50.130;8.526;2023-04-28T10:20:21;98727.63;;;10.22;67.96
27685;BME280;46113;50.130;8.526;2023-04-28T10:25:26;98716.91;;;10.39;68.37
27685;BME280;46113;50.130;8.526;2023-04-28T10:27:53;98718.13;;;10.60;66.34
27685;BME280;46113;50.130;8.526;2023-04-28T10:30:22;98716.16;;;10.49;67.56
27685;BME280;46113;50.130;8.526;2023-04-28T10:35:45;98718.28;;;10.44;67.68
27685;BME280;46113;50.130;8.526;2023-04-28T10:38:17;98722.34;;;10.63;68.48
27685;BME280;46113;50.130;8.526;2023-04-28T10:40:54;98718.22;;;10.59;68.08
27685;BME280;46113;50.130;8.526;2023-04-28T10:46:02;98726.19;;;9.89;70.41
27685;BME280;46113;50.130;8.526;2023-04-28T10:56:32;98707.06;;;10.13;70.44
27685;BME280;46113;50.130;8.526;2023-04-28T10:59:00;98704.78;;;10.49;69.21
27685;BME280;46113;50.130;8.526;2023-04-28T11:01:39;98716.72;;;10.00;71.76
27685;BME280;46113;50.130;8.526;2023-04-28T11:04:15;98710.97;;;10.48;69.75
27685;BME280;46113;50.130;8.526;2023-04-28T11:07:09;98715.69;;;10.30;70.27
27685;BME280;46113;50.130;8.526;2023-04-28T11:13:24;98706.13;;;11.21;67.59
27685;BME280;46113;50.130;8.526;2023-04-28T11:16:06;98706.00;;;11.36;67.60
27685;BME280;46113;50.130;8.526;2023-04-28T11:19:04;98702.38;;;10.85;70.78
27685;BME280;46113;50.130;8.526;2023-04-28T11:22:39;98699.50;;;10.21;73.40
27685;BME280;46113;50.130;8.526;2023-04-28T11:25:26;98690.50;;;11.56;68.66
27685;BME280;46113;50.130;8.526;2023-04-28T11:28:03;98686.09;;;11.43;68.16
27685;BME280;46113;50.130;8.526;2023-04-28T11:33:26;98678.72;;;12.35;66.58
27685;BME280;46113;50.130;8.526;2023-04-28T11:36:27;98678.44;;;12.62;64.14
27685;BME280;46113;50.130;8.526;2023-04-28T11:38:59;98677.75;;;12.71;64.18
27685;BME280;46113;50.130;8.526;2023-04-28T11:41:43;98680.63;;;12.08;66.65
27685;BME280;46113;50.130;8.526;2023-04-28T11:44:33;98677.91;;;12.21;67.94
27685;BME280;46113;50.130;8.526;2023-04-28T11:47:16;98675.88;;;12.49;65.54
27685;BME280;46113;50.130;8.526;2023-04-28T11:49:57;98678.25;;;12.88;64.51
27685;BME280;46113;50.130;8.526;2023-04-28T11:52:32;98685.25;;;12.17;66.24
27685;BME280;46113;50.130;8.526;2023-04-28T11:55:06;98684.75;;;12.72;66.00
27685;BME280;46113;50.130;8.526;2023-04-28T11:57:33;98674.59;;;13.25;64.37
27685;BME280;46113;50.130;8.526;2023-04-28T12:00:14;98671.19;;;13.34;63.75
27685;BME280;46113;50.130;8.526;2023-04-28T12:02:45;98670.56;;;13.65;63.70
27685;BME280;46113;50.130;8.526;2023-04-28T12:05:13;98665.78;;;12.77;65.26
27685;BME280;46113;50.130;8.526;2023-04-28T12:07:49;98656.94;;;12.54;68.27
27685;BME280;46113;50.130;8.526;2023-04-28T12:10:16;98646.41;;;12.99;68.47
27685;BME280;46113;50.130;8.526;2023-04-28T12:12:46;98658.47;;;12.33;69.02
27685;BME280;46113;50.130;8.526;2023-04-28T12:15:38;98654.09;;;12.80;69.37
27685;BME280;46113;50.130;8.526;2023-04-28T12:18:10;98648.72;;;14.38;63.34
27685;BME280;46113;50.130;8.526;2023-04-28T12:20:38;98664.94;;;15.20;60.61
27685;BME280;46113;50.130;8.526;2023-04-28T12:23:05;98657.28;;;14.42;61.61
27685;BME280;46113;50.130;8.526;2023-04-28T12:25:42;98661.31;;;14.03;60.13
27685;BME280;46113;50.130;8.526;2023-04-28T12:28:09;98665.16;;;14.11;64.05
27685;BME280;46113;50.130;8.526;2023-04-28T12:31:07;98666.84;;;13.56;65.17
27685;BME280;46113;50.130;8.526;2023-04-28T12:33:43;98663.75;;;14.28;64.52
27685;BME280;46113;50.130;8.526;2023-04-28T12:36:10;98662.91;;;14.27;63.91
27685;BME280;46113;50.130;8.526;2023-04-28T12:38:48;98651.75;;;14.12;62.82
27685;BME280;46113;50.130;8.526;2023-04-28T12:41:17;98641.38;;;14.94;61.99
27685;BME280;46113;50.130;8.526;2023-04-28T12:43:45;98645.28;;;15.12;60.62
27685;BME280;46113;50.130;8.526;2023-04-28T12:46:12;98651.41;;;14.60;61.29
27685;BME280;46113;50.130;8.526;2023-04-28T12:48:43;98641.63;;;14.91;60.00
27685;BME280;46113;50.130;8.526;2023-04-28T12:51:11;98646.25;;;14.89;59.98
27685;BME280;46113;50.130;8.526;2023-04-28T12:53:39;98638.97;;;15.13;59.28
27685;BME280;46113;50.130;8.526;2023-04-28T12:56:08;98646.56;;;14.96;58.89
27685;BME280;46113;50.130;8.526;2023-04-28T12:58:36;98648.59;;;14.61;59.75
27685;BME280;46113;50.130;8.526;2023-04-28T13:01:03;98648.63;;;14.07;62.60
27685;BME280;46113;50.130;8.526;2023-04-28T13:03:31;98640.50;;;12.96;63.91
27685;BME280;46113;50.130;8.526;2023-04-28T13:05:59;98653.38;;;12.78;65.32
27685;BME280;46113;50.130;8.526;2023-04-28T13:08:33;98642.56;;;14.05;64.24
27685;BME280;46113;50.130;8.526;2023-04-28T13:11:29;98639.06;;;14.37;62.09
27685;BME280;46113;50.130;8.526;2023-04-28T13:13:58;98635.19;;;13.53;62.57
27685;BME280;46113;50.130;8.526;2023-04-28T13:16:25;98634.81;;;13.69;65.35
27685;BME280;46113;50.130;8.526;2023-04-28T13:18:56;98639.91;;;13.15;63.59
27685;BME280;46113;50.130;8.526;2023-04-28T13:21:26;98642.84;;;14.23;60.72
27685;BME280;46113;50.130;8.526;2023-04-28T13:23:57;98634.03;;;15.08;59.18
27685;BME280;46113;50.130;8.526;2023-04-28T13:26:25;98643.53;;;15.01;60.05
27685;BME280;46113;50.130;8.526;2023-04-28T13:28:52;98651.91;;;14.75;60.86
27685;BME280;46113;50.130;8.526;2023-04-28T13:31:19;98651.72;;;14.45;62.95
27685;BME280;46113;50.130;8.526;2023-04-28T13:33:54;98640.19;;;13.90;64.23
27685;BME280;46113;50.130;8.526;2023-04-28T13:36:39;98637.56;;;14.87;61.18
27685;BME280;46113;50.130;8.526;2023-04-28T13:39:17;98635.94;;;13.55;64.78
27685;BME280;46113;50.130;8.526;2023-04-28T13:41:47;98628.53;;;14.03;64.20
27685;BME280;46113;50.130;8.526;2023-04-28T13:44:31;98627.81;;;14.12;66.39
27685;BME280;46113;50.130;8.526;2023-04-28T13:46:58;98624.84;;;14.69;63.43
27685;BME280;46113;50.130;8.526;2023-04-28T13:49:35;98624.19;;;15.40;61.99